createdAt,value
2022-09-11T00:01:13.918Z,6.28
2022-09-11T00:03:42.529Z,3.30
2022-09-11T00:06:12.723Z,6.20
2022-09-11T00:08:42.188Z,10.80
2022-09-11T00:11:13.788Z,3.30
2022-09-11T00:13:41.956Z,5.28
2022-09-11T00:16:21.310Z,6.28
2022-09-11T00:18:50.037Z,4.53
2022-09-11T00:21:18.302Z,4.20
2022-09-11T00:23:47.118Z,5.93
2022-09-11T00:26:16.994Z,5.88
2022-09-11T00:28:45.189Z,4.43
2022-09-11T00:31:14.596Z,11.10
2022-09-11T00:33:43.010Z,5.70
2022-09-11T00:36:14.391Z,6.88
2022-09-11T00:38:42.809Z,7.95
2022-09-11T00:41:15.261Z,5.57
2022-09-11T00:43:59.781Z,6.93
2022-09-11T00:46:35.152Z,7.28
2022-09-11T00:49:11.572Z,6.10
2022-09-11T00:51:41.074Z,5.15
2022-09-11T00:54:13.784Z,4.35
2022-09-11T00:56:42.623Z,5.43
2022-09-11T00:59:12.974Z,5.93
2022-09-11T01:01:41.575Z,6.05
2022-09-11T01:04:10.314Z,7.43
2022-09-11T01:06:37.997Z,9.15
2022-09-11T01:09:05.782Z,5.25
2022-09-11T01:11:46.995Z,5.65
2022-09-11T01:14:34.509Z,8.20
2022-09-11T01:17:16.238Z,7.75
2022-09-11T01:20:07.101Z,3.25
2022-09-11T01:23:08.253Z,2.95
2022-09-11T01:25:54.260Z,7.60
2022-09-11T01:28:28.613Z,6.95
2022-09-11T01:31:02.460Z,6.13
2022-09-11T01:33:38.820Z,14.05
2022-09-11T01:36:11.850Z,6.80
2022-09-11T01:38:46.745Z,6.20
2022-09-11T01:41:20.513Z,9.65
2022-09-11T01:43:56.829Z,11.27
2022-09-11T01:46:27.720Z,6.30
2022-09-11T01:49:02.515Z,9.60
2022-09-11T01:51:33.861Z,10.63
2022-09-11T01:54:05.006Z,11.25
2022-09-11T01:56:37.456Z,11.82
2022-09-11T01:59:11.345Z,13.00
2022-09-11T02:01:43.510Z,8.93
2022-09-11T02:04:18.582Z,11.77
2022-09-11T02:06:53.858Z,7.80
2022-09-11T02:09:26.769Z,11.43
2022-09-11T02:11:58.092Z,13.93
2022-09-11T02:14:32.274Z,13.48
2022-09-11T02:17:08.793Z,9.05
2022-09-11T02:19:38.658Z,7.97
2022-09-11T02:22:07.729Z,7.07
2022-09-11T02:24:35.609Z,8.63
2022-09-11T02:27:07.386Z,7.38
2022-09-11T02:29:37.052Z,6.57
2022-09-11T02:32:05.396Z,4.80
2022-09-11T02:34:35.352Z,4.75
2022-09-11T02:37:14.480Z,4.88
2022-09-11T02:40:01.194Z,4.60
2022-09-11T02:42:40.440Z,4.85
2022-09-11T02:45:24.485Z,4.22
2022-09-11T02:48:01.765Z,8.30
2022-09-11T02:50:40.324Z,7.13
2022-09-11T02:53:13.653Z,2.92
2022-09-11T02:55:56.964Z,6.65
2022-09-11T02:58:29.177Z,6.07
2022-09-11T03:01:01.954Z,6.28
2022-09-11T03:03:37.685Z,7.25
2022-09-11T03:06:06.300Z,5.88
2022-09-11T03:08:34.450Z,7.07
2022-09-11T03:11:02.190Z,3.35
2022-09-11T03:13:31.133Z,6.30
2022-09-11T03:16:01.409Z,7.55
2022-09-11T03:18:29.163Z,8.95
2022-09-11T03:20:57.240Z,5.13
2022-09-11T03:23:25.288Z,6.82
2022-09-11T03:25:53.226Z,6.32
2022-09-11T03:28:22.685Z,4.82
2022-09-11T03:30:50.903Z,7.35
2022-09-11T03:33:19.953Z,5.05
2022-09-11T03:35:48.161Z,5.38
2022-09-11T03:38:16.775Z,5.45
2022-09-11T03:40:44.642Z,4.53
2022-09-11T03:43:13.178Z,9.05
2022-09-11T03:45:41.023Z,8.23
2022-09-11T03:48:08.936Z,7.38
2022-09-11T03:50:38.454Z,4.30
2022-09-11T03:53:06.619Z,5.38
2022-09-11T03:55:35.007Z,4.65
2022-09-11T03:58:03.031Z,6.13
2022-09-11T04:00:31.112Z,7.50
2022-09-11T04:02:59.314Z,7.25
2022-09-11T04:05:27.720Z,5.97
2022-09-11T04:07:56.900Z,6.35
2022-09-11T04:10:24.698Z,8.93
2022-09-11T04:12:52.777Z,6.55
2022-09-11T04:15:20.600Z,5.47
2022-09-11T04:17:49.165Z,4.88
2022-09-11T04:20:17.402Z,6.60
2022-09-11T04:22:45.236Z,5.35
2022-09-11T04:25:14.588Z,5.75
2022-09-11T04:27:42.870Z,5.53
2022-09-11T04:30:11.557Z,4.43
2022-09-11T04:32:39.440Z,6.38
2022-09-11T04:35:08.443Z,4.85
2022-09-11T04:37:36.288Z,5.90
2022-09-11T04:40:04.539Z,5.15
2022-09-11T04:42:34.018Z,5.88
2022-09-11T04:45:01.763Z,4.13
2022-09-11T04:47:30.061Z,7.45
2022-09-11T04:49:58.385Z,5.50
2022-09-11T04:52:26.791Z,4.45
2022-09-11T04:54:54.493Z,5.00
2022-09-11T04:57:22.708Z,4.93
2022-09-11T04:59:52.778Z,4.88
2022-09-11T05:02:21.855Z,4.50
2022-09-11T05:04:49.994Z,9.32
2022-09-11T05:07:17.838Z,5.25
2022-09-11T05:09:45.571Z,6.22
2022-09-11T05:12:13.908Z,5.38
2022-09-11T05:14:42.029Z,4.85
2022-09-11T05:17:13.539Z,5.95
2022-09-11T05:19:41.630Z,6.55
2022-09-11T05:22:10.203Z,5.30
2022-09-11T05:24:38.510Z,5.18
2022-09-11T05:27:07.452Z,4.55
2022-09-11T05:29:35.185Z,5.93
2022-09-11T05:32:03.579Z,4.20
2022-09-11T05:34:33.088Z,4.78
2022-09-11T05:37:02.194Z,4.80
2022-09-11T05:39:30.304Z,4.68
2022-09-11T05:41:58.298Z,9.95
2022-09-11T05:44:26.278Z,6.07
2022-09-11T05:46:55.088Z,6.82
2022-09-11T05:49:23.085Z,6.90
2022-09-11T05:51:52.591Z,8.45
2022-09-11T05:54:20.290Z,5.22
2022-09-11T05:56:48.334Z,6.97
2022-09-11T05:59:16.365Z,5.90
2022-09-11T06:01:44.103Z,8.80
2022-09-11T06:04:12.153Z,9.45
2022-09-11T06:06:40.302Z,8.63
2022-09-11T06:09:09.630Z,7.25
2022-09-11T06:11:37.628Z,8.98
2022-09-11T06:14:05.441Z,9.70
2022-09-11T06:16:34.328Z,7.35
2022-09-11T06:19:02.674Z,8.15
2022-09-11T06:21:31.209Z,8.82
2022-09-11T06:23:59.094Z,9.02
2022-09-11T06:26:29.400Z,8.57
2022-09-11T06:28:57.535Z,8.13
2022-09-11T06:31:26.860Z,7.38
2022-09-11T06:33:55.360Z,7.63
2022-09-11T06:36:27.001Z,8.18
2022-09-11T06:38:56.390Z,7.53
2022-09-11T06:41:25.851Z,10.27
2022-09-11T06:43:55.293Z,9.52
2022-09-11T06:46:25.357Z,8.68
2022-09-11T06:48:54.680Z,10.63
2022-09-11T06:51:23.818Z,13.18
2022-09-11T06:53:56.133Z,12.25
2022-09-11T06:56:24.928Z,10.85
2022-09-11T06:58:53.100Z,12.75
2022-09-11T07:01:23.582Z,16.23
2022-09-11T07:03:54.568Z,13.38
2022-09-11T07:06:24.536Z,10.27
2022-09-11T07:08:53.353Z,10.23
2022-09-11T07:11:21.690Z,11.88
2022-09-11T07:13:50.006Z,9.65
2022-09-11T07:16:18.181Z,10.02
2022-09-11T07:18:48.497Z,9.50
2022-09-11T07:21:19.131Z,9.55
2022-09-11T07:23:49.784Z,12.88
2022-09-11T07:26:18.960Z,14.27
2022-09-11T07:28:48.765Z,12.95
2022-09-11T07:31:21.126Z,11.25
2022-09-11T07:33:51.780Z,12.15
2022-09-11T07:36:25.045Z,13.93
2022-09-11T07:38:53.997Z,13.15
2022-09-11T07:41:25.705Z,12.93
2022-09-11T07:43:55.013Z,11.38
2022-09-11T07:46:24.354Z,15.23
2022-09-11T07:48:53.510Z,13.75
2022-09-11T07:51:21.296Z,13.32
2022-09-11T07:53:51.503Z,11.38
2022-09-11T07:56:23.121Z,12.55
2022-09-11T07:58:53.763Z,12.25
2022-09-11T08:01:22.950Z,13.57
2022-09-11T08:03:58.188Z,11.70
2022-09-11T08:06:28.180Z,12.80
2022-09-11T08:08:58.145Z,12.50
2022-09-11T08:11:26.668Z,14.35
2022-09-11T08:13:56.436Z,15.88
2022-09-11T08:16:26.408Z,15.35
2022-09-11T08:18:56.019Z,15.30
2022-09-11T08:21:26.118Z,16.05
2022-09-11T08:23:54.022Z,17.02
2022-09-11T08:26:24.190Z,17.48
2022-09-11T08:28:55.962Z,17.23
2022-09-11T08:31:26.331Z,18.63
2022-09-11T08:33:56.758Z,15.95
2022-09-11T08:36:25.276Z,13.05
2022-09-11T08:38:53.573Z,13.98
2022-09-11T08:41:31.037Z,11.27
2022-09-11T08:44:06.757Z,12.57
2022-09-11T08:46:37.799Z,12.35
2022-09-11T08:49:14.334Z,10.70
2022-09-11T08:51:44.781Z,12.05
2022-09-11T08:54:22.414Z,13.35
2022-09-11T08:56:52.131Z,13.55
2022-09-11T08:59:29.114Z,10.25
2022-09-11T09:02:10.952Z,9.57
2022-09-11T09:04:50.901Z,10.60
2022-09-11T09:07:29.794Z,12.02
2022-09-11T09:10:04.407Z,12.35
2022-09-11T09:12:42.669Z,27.65
2022-09-11T09:15:25.168Z,12.13
2022-09-11T09:18:00.640Z,10.57
2022-09-11T09:20:32.881Z,8.88
2022-09-11T09:23:04.954Z,9.32
2022-09-11T09:28:09.910Z,10.27
2022-09-11T09:30:47.497Z,11.13
2022-09-11T09:33:27.120Z,12.57
2022-09-11T09:35:57.181Z,13.10
2022-09-11T09:38:30.239Z,13.27
2022-09-11T09:41:17.879Z,12.40
2022-09-11T09:43:56.773Z,12.45
2022-09-11T09:46:30.456Z,10.77
2022-09-11T09:49:00.660Z,11.50
2022-09-11T09:51:30.255Z,8.93
2022-09-11T09:54:02.699Z,8.32
2022-09-11T09:56:33.930Z,10.38
2022-09-11T09:59:12.900Z,8.37
2022-09-11T10:01:50.048Z,6.60
2022-09-11T10:04:22.434Z,6.47
2022-09-11T10:06:55.231Z,6.70
2022-09-11T10:09:28.070Z,7.63
2022-09-11T10:12:02.687Z,7.22
2022-09-11T10:17:23.929Z,8.35
2022-09-11T10:19:55.616Z,6.60
2022-09-11T10:22:32.513Z,7.30
2022-09-11T10:25:10.413Z,7.97
2022-09-11T10:27:57.075Z,8.43
2022-09-11T10:30:31.453Z,9.40
2022-09-11T10:33:03.757Z,7.75
2022-09-11T10:35:35.558Z,9.88
2022-09-11T10:38:18.100Z,8.37
2022-09-11T10:41:18.876Z,8.60
2022-09-11T10:43:58.741Z,8.07
2022-09-11T10:46:41.093Z,7.22
2022-09-11T10:49:21.041Z,8.02
2022-09-11T10:52:01.888Z,7.18
2022-09-11T10:54:48.102Z,7.57
2022-09-11T10:57:23.510Z,7.65
2022-09-11T11:00:05.857Z,7.53
2022-09-11T11:02:35.981Z,6.85
2022-09-11T11:05:07.416Z,6.90
2022-09-11T11:08:03.342Z,7.90
2022-09-11T11:10:44.790Z,7.55
2022-09-11T11:13:31.141Z,8.73
2022-09-11T11:16:11.789Z,9.65
2022-09-11T11:18:54.656Z,11.05
2022-09-11T11:21:40.930Z,12.38
2022-09-11T11:24:21.866Z,14.48
2022-09-11T11:27:05.307Z,14.65
2022-09-11T11:29:51.564Z,16.05
2022-09-11T11:32:39.407Z,16.33
2022-09-11T11:35:22.808Z,17.13
2022-09-11T11:37:56.929Z,17.15
2022-09-11T11:40:29.916Z,15.35
2022-09-11T11:43:05.302Z,14.30
2022-09-11T11:45:37.810Z,15.15
2022-09-11T11:48:13.791Z,15.38
2022-09-11T11:50:44.868Z,12.15
2022-09-11T11:53:21.260Z,13.73
2022-09-11T11:56:01.383Z,13.93
2022-09-11T11:58:40.373Z,13.23
2022-09-11T12:01:18.093Z,9.95
2022-09-11T12:03:50.373Z,8.95
2022-09-11T12:06:18.620Z,8.90
2022-09-11T12:08:48.003Z,8.18
2022-09-11T12:11:19.296Z,7.40
2022-09-11T12:13:49.489Z,7.00
2022-09-11T12:16:20.850Z,6.53
2022-09-11T12:19:08.816Z,6.38
2022-09-11T12:21:40.456Z,7.95
2022-09-11T12:24:17.960Z,6.60
2022-09-11T12:26:46.021Z,6.93
2022-09-11T12:29:51.584Z,8.27
2022-09-11T12:32:28.993Z,8.48
2022-09-11T12:35:02.717Z,9.02
2022-09-11T12:37:38.633Z,9.52
2022-09-11T12:40:18.850Z,10.75
2022-09-11T12:42:48.666Z,10.52
2022-09-11T12:45:34.561Z,11.25
2022-09-11T12:48:10.601Z,8.43
2022-09-11T12:50:39.937Z,11.63
2022-09-11T12:53:17.484Z,9.43
2022-09-11T12:55:56.049Z,8.70
2022-09-11T12:58:29.391Z,8.13
2022-09-11T13:01:08.747Z,8.45
2022-09-11T13:03:46.908Z,9.38
2022-09-11T13:06:15.993Z,5.00
2022-09-11T13:08:49.433Z,5.93
2022-09-11T13:11:40.818Z,4.97
2022-09-11T13:14:38.700Z,7.87
2022-09-11T13:17:15.346Z,5.47
2022-09-11T13:19:44.549Z,4.53
2022-09-11T13:22:24.133Z,6.22
2022-09-11T13:24:52.805Z,4.78
2022-09-11T13:27:26.535Z,4.13
2022-09-11T13:29:57.375Z,5.28
2022-09-11T13:32:25.956Z,7.38
2022-09-11T13:35:01.809Z,4.30
2022-09-11T13:37:37.789Z,3.78
2022-09-11T13:40:08.376Z,4.03
2022-09-11T13:42:37.177Z,5.22
2022-09-11T13:45:06.730Z,3.88
2022-09-11T13:47:41.224Z,7.28
2022-09-11T13:50:14.594Z,5.78
2022-09-11T13:52:44.661Z,4.68
2022-09-11T13:55:18.933Z,4.38
2022-09-11T13:57:55.142Z,2.88
2022-09-11T14:00:41.201Z,4.88
2022-09-11T14:03:20.344Z,3.42
2022-09-11T14:05:53.788Z,4.55
2022-09-11T14:08:34.300Z,3.65
2022-09-11T14:11:11.122Z,2.70
2022-09-11T14:13:45.879Z,3.15
2022-09-11T14:16:23.932Z,3.67
2022-09-11T14:18:55.535Z,4.22
2022-09-11T14:21:32.413Z,3.90
2022-09-11T14:24:00.609Z,4.15
2022-09-11T14:26:42.095Z,5.00
2022-09-11T14:29:24.662Z,2.73
2022-09-11T14:31:54.168Z,3.60
2022-09-11T14:34:22.953Z,4.65
2022-09-11T14:36:56.140Z,3.30
2022-09-11T14:39:27.844Z,4.65
2022-09-11T14:41:56.736Z,2.95
2022-09-11T14:44:26.578Z,3.05
2022-09-11T14:46:56.138Z,3.13
2022-09-11T14:49:24.224Z,2.03
2022-09-11T14:51:58.192Z,2.88
2022-09-11T14:54:28.943Z,3.55
2022-09-11T14:56:56.834Z,3.50
2022-09-11T14:59:24.622Z,2.88
2022-09-11T15:01:53.106Z,3.50
2022-09-11T15:04:23.041Z,2.67
2022-09-11T15:06:54.153Z,4.18
2022-09-11T15:09:25.258Z,3.88
2022-09-11T15:11:53.292Z,3.97
2022-09-11T15:14:44.652Z,5.63
2022-09-11T15:17:12.607Z,4.43
2022-09-11T15:19:40.875Z,5.43
2022-09-11T15:22:09.550Z,5.22
2022-09-11T15:24:39.108Z,5.05
2022-09-11T15:27:07.419Z,9.70
2022-09-11T15:29:36.192Z,5.28
2022-09-11T15:32:05.757Z,5.57
2022-09-11T15:34:33.709Z,11.43
2022-09-11T15:37:01.996Z,5.47
2022-09-11T15:39:30.388Z,8.70
2022-09-11T15:41:59.475Z,6.43
2022-09-11T15:44:28.564Z,7.65
2022-09-11T15:46:59.350Z,8.77
2022-09-11T15:49:29.322Z,10.15
2022-09-11T15:51:58.369Z,15.52
2022-09-11T15:54:27.281Z,10.85
2022-09-11T15:56:55.912Z,10.13
2022-09-11T15:59:25.460Z,8.93
2022-09-11T16:01:53.416Z,11.18
2022-09-11T16:04:22.931Z,8.55
2022-09-11T16:06:53.318Z,11.35
2022-09-11T16:09:23.504Z,15.60
2022-09-11T16:11:54.397Z,12.63
2022-09-11T16:14:25.905Z,12.18
2022-09-11T16:16:54.649Z,13.93
2022-09-11T16:19:27.818Z,19.73
2022-09-11T16:21:57.281Z,17.52
2022-09-11T16:24:27.862Z,14.45
2022-09-11T16:26:56.397Z,14.70
2022-09-11T16:29:42.931Z,16.30
2022-09-11T16:32:28.196Z,12.55
2022-09-11T16:34:59.266Z,13.75
2022-09-11T16:37:28.314Z,11.20
2022-09-11T16:39:56.503Z,13.32
2022-09-11T16:42:24.510Z,12.75
2022-09-11T16:44:53.799Z,16.17
2022-09-11T16:47:23.326Z,16.73
2022-09-11T16:50:08.177Z,14.55
2022-09-11T16:52:37.133Z,19.27
2022-09-11T16:55:09.486Z,13.43
2022-09-11T16:57:37.853Z,13.40
2022-09-11T17:00:09.909Z,13.73
2022-09-11T17:02:39.778Z,12.45
2022-09-11T17:05:09.644Z,14.60
2022-09-11T17:07:37.528Z,13.10
2022-09-11T17:10:05.833Z,12.68
2022-09-11T17:12:33.938Z,16.33
2022-09-11T17:15:01.949Z,18.48
2022-09-11T17:17:31.771Z,15.57
2022-09-11T17:19:59.777Z,15.25
2022-09-11T17:22:27.915Z,22.30
2022-09-11T17:24:55.845Z,21.35
2022-09-11T17:27:24.371Z,20.52
2022-09-11T17:29:52.306Z,17.20
2022-09-11T17:32:28.227Z,17.50
2022-09-11T17:34:59.332Z,17.75
2022-09-11T17:37:27.776Z,24.05
2022-09-11T17:39:55.833Z,20.92
2022-09-11T17:42:23.865Z,23.92
2022-09-11T17:44:51.811Z,25.13
2022-09-11T17:47:19.528Z,26.42
2022-09-11T17:49:49.250Z,23.92
2022-09-11T17:52:20.468Z,26.38
2022-09-11T17:54:48.959Z,23.67
2022-09-11T17:57:16.936Z,24.23
2022-09-11T17:59:44.969Z,21.60
2022-09-11T18:02:14.708Z,23.77
2022-09-11T18:04:44.176Z,23.55
2022-09-11T18:07:12.206Z,26.65
2022-09-11T18:09:41.629Z,24.65
2022-09-11T18:12:09.953Z,21.77
2022-09-11T18:14:38.593Z,25.33
2022-09-11T18:17:07.369Z,19.33
2022-09-11T18:19:35.098Z,23.23
2022-09-11T18:22:02.988Z,21.85
2022-09-11T18:24:31.216Z,22.13
2022-09-11T18:27:01.195Z,25.23
2022-09-11T18:29:30.545Z,21.17
2022-09-11T18:32:00.276Z,23.33
2022-09-11T18:34:29.341Z,24.80
2022-09-11T18:36:57.604Z,23.15
2022-09-11T18:39:26.597Z,25.73
2022-09-11T18:41:54.313Z,26.15
2022-09-11T18:44:25.178Z,27.38
2022-09-11T18:46:53.982Z,20.58
2022-09-11T18:49:22.327Z,21.92
2022-09-11T18:51:50.990Z,20.15
2022-09-11T18:54:21.202Z,22.27
2022-09-11T18:56:50.378Z,20.00
2022-09-11T18:59:19.502Z,17.67
2022-09-11T19:01:49.084Z,18.88
2022-09-11T19:04:17.320Z,16.63
2022-09-11T19:06:46.269Z,16.95
2022-09-11T19:09:14.801Z,14.80
2022-09-11T19:11:42.905Z,12.88
2022-09-11T19:14:13.172Z,19.38
2022-09-11T19:16:42.295Z,13.75
2022-09-11T19:19:11.553Z,13.75
2022-09-11T19:21:39.805Z,15.98
2022-09-11T19:24:07.920Z,13.63
2022-09-11T19:26:38.058Z,15.38
2022-09-11T19:29:08.476Z,14.52
2022-09-11T19:31:39.209Z,17.30
2022-09-11T19:34:09.575Z,15.27
2022-09-11T19:36:38.957Z,19.08
2022-09-11T19:39:07.520Z,20.90
2022-09-11T19:41:37.852Z,20.15
2022-09-11T19:44:08.027Z,19.77
2022-09-11T19:46:37.191Z,14.50
2022-09-11T19:49:07.250Z,15.38
2022-09-11T19:51:37.276Z,16.33
2022-09-11T19:54:07.413Z,15.32
2022-09-11T19:56:37.015Z,19.27
2022-09-11T19:59:05.919Z,18.05
2022-09-11T20:01:34.107Z,17.23
2022-09-11T20:04:02.768Z,17.05
2022-09-11T20:06:33.080Z,23.45
2022-09-11T20:11:51.920Z,25.15
2022-09-11T20:14:19.741Z,22.45
2022-09-11T20:16:47.544Z,23.33
2022-09-11T20:19:17.167Z,24.77
2022-09-11T20:21:45.021Z,23.65
2022-09-11T20:24:12.781Z,28.83
2022-09-11T20:26:40.777Z,29.83
2022-09-11T20:29:15.496Z,24.27
2022-09-11T20:31:48.015Z,27.60
2022-09-11T20:34:16.488Z,30.77
2022-09-11T20:36:44.386Z,36.35
2022-09-11T20:39:13.447Z,28.77
2022-09-11T20:41:41.758Z,30.90
2022-09-11T20:44:12.921Z,29.25
2022-09-11T20:46:43.561Z,32.35
2022-09-11T20:49:12.126Z,27.27
2022-09-11T20:51:40.464Z,25.98
2022-09-11T20:54:09.094Z,25.95
2022-09-11T20:56:37.221Z,24.63
2022-09-11T20:59:05.256Z,27.15
2022-09-11T21:01:35.422Z,23.13
2022-09-11T21:04:05.445Z,23.73
2022-09-11T21:06:35.639Z,17.75
2022-09-11T21:09:07.462Z,20.35
2022-09-11T21:14:04.438Z,17.50
2022-09-11T21:16:33.800Z,20.35
2022-09-11T21:19:03.158Z,18.80
2022-09-11T21:21:31.647Z,17.88
2022-09-11T21:24:01.827Z,17.88
2022-09-11T21:26:31.310Z,19.48
2022-09-11T21:29:00.673Z,16.83
2022-09-11T21:31:29.245Z,25.30
2022-09-11T21:33:59.323Z,16.02
2022-09-11T21:36:28.221Z,20.13
2022-09-11T21:38:56.226Z,14.18
2022-09-11T21:41:24.310Z,17.50
2022-09-11T21:43:52.317Z,16.27
2022-09-11T21:46:20.390Z,17.60
2022-09-11T21:48:48.352Z,22.02
2022-09-11T21:51:20.106Z,17.98
2022-09-11T21:53:50.248Z,16.63
2022-09-11T21:56:20.320Z,19.85
2022-09-11T21:58:48.653Z,21.23
2022-09-11T22:01:16.717Z,24.80
2022-09-11T22:03:45.123Z,27.15
2022-09-11T22:06:14.147Z,23.25
2022-09-11T22:08:46.636Z,21.10
2022-09-11T22:11:15.997Z,20.70
2022-09-11T22:13:44.536Z,18.67
2022-09-11T22:16:14.860Z,23.80
2022-09-11T22:18:43.256Z,25.35
2022-09-11T22:21:11.427Z,25.50
2022-09-11T22:23:39.542Z,21.52
2022-09-11T22:26:10.979Z,22.45
2022-09-11T22:28:39.418Z,20.15
2022-09-11T22:31:08.843Z,21.77
2022-09-11T22:33:37.868Z,19.48
2022-09-11T22:36:11.231Z,24.33
2022-09-11T22:38:39.573Z,23.08
2022-09-11T22:41:08.963Z,18.48
2022-09-11T22:43:37.016Z,21.17
2022-09-11T22:46:06.408Z,21.23
2022-09-11T22:48:34.529Z,21.08
2022-09-11T22:51:02.610Z,20.85
2022-09-11T22:53:31.683Z,20.20
2022-09-11T22:56:00.260Z,23.75
2022-09-11T22:58:30.557Z,27.27
2022-09-11T23:01:00.902Z,25.63
2022-09-11T23:03:29.254Z,28.40
2022-09-11T23:06:15.193Z,18.25
2022-09-11T23:08:45.628Z,26.27
2022-09-11T23:11:15.184Z,25.58
2022-09-11T23:13:47.654Z,34.03
2022-09-11T23:16:17.778Z,31.55
2022-09-11T23:18:46.351Z,24.55
2022-09-11T23:21:15.242Z,31.77
2022-09-11T23:23:44.817Z,25.50
2022-09-11T23:26:15.010Z,23.75
2022-09-11T23:28:44.261Z,26.90
2022-09-11T23:31:13.571Z,22.02
2022-09-11T23:33:42.042Z,28.13
2022-09-11T23:36:11.922Z,27.08
2022-09-11T23:38:40.507Z,26.60
2022-09-11T23:41:08.783Z,32.85
2022-09-11T23:43:36.601Z,34.75
2022-09-11T23:46:06.393Z,28.25
2022-09-11T23:48:34.846Z,28.10
2022-09-11T23:51:02.696Z,35.08
2022-09-11T23:53:31.106Z,27.75
2022-09-11T23:55:59.532Z,34.50
2022-09-11T23:58:27.592Z,29.63
